sensor_id;sensor_type;location;lat;lon;timestamp;P1;durP1;ratioP1;P2;durP2;ratioP2
64854;SDS011;51321;50.428;8.378;2022-07-23T00:02:49;10.67;;;5.27;;
64854;SDS011;51321;50.428;8.378;2022-07-23T00:05:11;6.00;;;5.40;;
64854;SDS011;51321;50.428;8.378;2022-07-23T00:07:34;5.82;;;5.22;;
64854;SDS011;51321;50.428;8.378;2022-07-23T00:09:56;7.57;;;5.65;;
64854;SDS011;51321;50.428;8.378;2022-07-23T00:12:18;6.60;;;5.00;;
64854;SDS011;51321;50.428;8.378;2022-07-23T00:14:40;7.90;;;5.50;;
64854;SDS011;51321;50.428;8.378;2022-07-23T00:19:23;9.20;;;6.13;;
64854;SDS011;51321;50.428;8.378;2022-07-23T00:21:45;7.93;;;5.82;;
64854;SDS011;51321;50.428;8.378;2022-07-23T00:24:08;7.13;;;6.43;;
64854;SDS011;51321;50.428;8.378;2022-07-23T00:26:30;8.55;;;6.00;;
64854;SDS011;51321;50.428;8.378;2022-07-23T00:31:14;6.50;;;5.47;;
64854;SDS011;51321;50.428;8.378;2022-07-23T00:33:36;7.20;;;6.28;;
64854;SDS011;51321;50.428;8.378;2022-07-23T00:35:58;7.13;;;5.65;;
64854;SDS011;51321;50.428;8.378;2022-07-23T00:38:20;8.35;;;5.85;;
64854;SDS011;51321;50.428;8.378;2022-07-23T00:40:43;7.00;;;5.90;;
64854;SDS011;51321;50.428;8.378;2022-07-23T00:43:05;8.45;;;7.43;;
64854;SDS011;51321;50.428;8.378;2022-07-23T00:47:49;7.40;;;5.72;;
64854;SDS011;51321;50.428;8.378;2022-07-23T00:50:12;7.88;;;6.00;;
64854;SDS011;51321;50.428;8.378;2022-07-23T00:52:35;7.97;;;6.40;;
64854;SDS011;51321;50.428;8.378;2022-07-23T00:54:57;9.82;;;6.28;;
64854;SDS011;51321;50.428;8.378;2022-07-23T00:57:21;8.52;;;7.22;;
64854;SDS011;51321;50.428;8.378;2022-07-23T00:59:43;9.88;;;7.68;;
64854;SDS011;51321;50.428;8.378;2022-07-23T01:02:06;7.13;;;6.45;;
64854;SDS011;51321;50.428;8.378;2022-07-23T01:04:28;6.95;;;6.25;;
64854;SDS011;51321;50.428;8.378;2022-07-23T01:06:49;13.60;;;7.13;;
64854;SDS011;51321;50.428;8.378;2022-07-23T01:09:11;8.68;;;7.00;;
64854;SDS011;51321;50.428;8.378;2022-07-23T01:11:34;8.02;;;6.40;;
64854;SDS011;51321;50.428;8.378;2022-07-23T01:14:08;8.75;;;6.20;;
64854;SDS011;51321;50.428;8.378;2022-07-23T01:16:32;8.05;;;7.25;;
64854;SDS011;51321;50.428;8.378;2022-07-23T01:18:53;8.27;;;6.20;;
64854;SDS011;51321;50.428;8.378;2022-07-23T01:21:15;6.57;;;5.97;;
64854;SDS011;51321;50.428;8.378;2022-07-23T01:23:41;7.00;;;6.10;;
64854;SDS011;51321;50.428;8.378;2022-07-23T01:26:03;8.05;;;6.28;;
64854;SDS011;51321;50.428;8.378;2022-07-23T01:30:50;7.57;;;5.90;;
64854;SDS011;51321;50.428;8.378;2022-07-23T01:33:11;7.60;;;6.68;;
64854;SDS011;51321;50.428;8.378;2022-07-23T01:35:41;8.43;;;7.00;;
64854;SDS011;51321;50.428;8.378;2022-07-23T01:38:04;8.75;;;7.45;;
64854;SDS011;51321;50.428;8.378;2022-07-23T01:40:27;8.18;;;7.10;;
64854;SDS011;51321;50.428;8.378;2022-07-23T01:42:50;8.73;;;7.22;;
64854;SDS011;51321;50.428;8.378;2022-07-23T01:45:12;9.57;;;7.75;;
64854;SDS011;51321;50.428;8.378;2022-07-23T01:47:39;22.95;;;15.05;;
64854;SDS011;51321;50.428;8.378;2022-07-23T01:50:01;7.20;;;6.50;;
64854;SDS011;51321;50.428;8.378;2022-07-23T01:52:46;7.65;;;6.68;;
64854;SDS011;51321;50.428;8.378;2022-07-23T01:55:08;10.20;;;7.75;;
64854;SDS011;51321;50.428;8.378;2022-07-23T01:57:35;7.50;;;6.80;;
64854;SDS011;51321;50.428;8.378;2022-07-23T01:59:57;7.53;;;6.80;;
64854;SDS011;51321;50.428;8.378;2022-07-23T02:02:19;7.90;;;7.05;;
64854;SDS011;51321;50.428;8.378;2022-07-23T02:04:41;7.10;;;6.40;;
64854;SDS011;51321;50.428;8.378;2022-07-23T02:07:03;12.65;;;7.32;;
64854;SDS011;51321;50.428;8.378;2022-07-23T02:09:26;7.63;;;6.82;;
64854;SDS011;51321;50.428;8.378;2022-07-23T02:11:47;6.75;;;6.15;;
64854;SDS011;51321;50.428;8.378;2022-07-23T02:16:33;8.77;;;7.32;;
64854;SDS011;51321;50.428;8.378;2022-07-23T02:18:56;8.50;;;6.90;;
64854;SDS011;51321;50.428;8.378;2022-07-23T02:21:18;8.43;;;6.85;;
64854;SDS011;51321;50.428;8.378;2022-07-23T02:23:39;11.00;;;7.18;;
64854;SDS011;51321;50.428;8.378;2022-07-23T02:26:01;9.57;;;7.63;;
64854;SDS011;51321;50.428;8.378;2022-07-23T02:28:23;9.13;;;7.30;;
64854;SDS011;51321;50.428;8.378;2022-07-23T02:30:46;7.47;;;6.78;;
64854;SDS011;51321;50.428;8.378;2022-07-23T02:33:09;7.75;;;6.60;;
64854;SDS011;51321;50.428;8.378;2022-07-23T02:35:32;7.45;;;6.75;;
64854;SDS011;51321;50.428;8.378;2022-07-23T02:37:56;8.48;;;5.95;;
64854;SDS011;51321;50.428;8.378;2022-07-23T02:40:18;7.15;;;6.45;;
64854;SDS011;51321;50.428;8.378;2022-07-23T02:42:41;9.20;;;7.05;;
64854;SDS011;51321;50.428;8.378;2022-07-23T02:45:04;8.48;;;7.68;;
64854;SDS011;51321;50.428;8.378;2022-07-23T02:47:27;9.63;;;8.00;;
64854;SDS011;51321;50.428;8.378;2022-07-23T02:49:51;8.93;;;8.02;;
64854;SDS011;51321;50.428;8.378;2022-07-23T02:52:12;9.00;;;7.47;;
64854;SDS011;51321;50.428;8.378;2022-07-23T02:54:36;9.95;;;8.68;;
64854;SDS011;51321;50.428;8.378;2022-07-23T02:56:58;8.93;;;8.02;;
64854;SDS011;51321;50.428;8.378;2022-07-23T02:59:20;9.45;;;8.32;;
64854;SDS011;51321;50.428;8.378;2022-07-23T03:01:42;13.20;;;8.02;;
64854;SDS011;51321;50.428;8.378;2022-07-23T03:04:05;7.97;;;7.28;;
64854;SDS011;51321;50.428;8.378;2022-07-23T03:06:27;12.57;;;7.93;;
64854;SDS011;51321;50.428;8.378;2022-07-23T03:08:49;9.60;;;7.47;;
64854;SDS011;51321;50.428;8.378;2022-07-23T03:11:11;7.63;;;6.93;;
64854;SDS011;51321;50.428;8.378;2022-07-23T03:13:34;9.00;;;7.30;;
64854;SDS011;51321;50.428;8.378;2022-07-23T03:15:56;7.70;;;6.53;;
64854;SDS011;51321;50.428;8.378;2022-07-23T03:18:18;7.55;;;6.75;;
64854;SDS011;51321;50.428;8.378;2022-07-23T03:20:41;8.20;;;6.68;;
64854;SDS011;51321;50.428;8.378;2022-07-23T03:23:04;9.13;;;6.93;;
64854;SDS011;51321;50.428;8.378;2022-07-23T03:25:26;7.88;;;6.75;;
64854;SDS011;51321;50.428;8.378;2022-07-23T03:27:48;8.23;;;7.32;;
64854;SDS011;51321;50.428;8.378;2022-07-23T03:30:10;8.30;;;7.25;;
64854;SDS011;51321;50.428;8.378;2022-07-23T03:32:32;8.45;;;7.25;;
64854;SDS011;51321;50.428;8.378;2022-07-23T03:34:54;7.47;;;6.70;;
64854;SDS011;51321;50.428;8.378;2022-07-23T03:37:18;9.07;;;7.70;;
64854;SDS011;51321;50.428;8.378;2022-07-23T03:39:41;10.73;;;7.30;;
64854;SDS011;51321;50.428;8.378;2022-07-23T03:42:03;8.77;;;7.88;;
64854;SDS011;51321;50.428;8.378;2022-07-23T03:44:26;10.77;;;8.32;;
64854;SDS011;51321;50.428;8.378;2022-07-23T03:46:47;10.82;;;8.05;;
64854;SDS011;51321;50.428;8.378;2022-07-23T03:49:09;11.15;;;8.32;;
64854;SDS011;51321;50.428;8.378;2022-07-23T03:51:31;11.48;;;7.03;;
64854;SDS011;51321;50.428;8.378;2022-07-23T03:53:54;9.25;;;7.13;;
64854;SDS011;51321;50.428;8.378;2022-07-23T03:56:16;8.85;;;7.03;;
64854;SDS011;51321;50.428;8.378;2022-07-23T03:58:38;8.18;;;7.38;;
64854;SDS011;51321;50.428;8.378;2022-07-23T04:01:00;7.85;;;7.00;;
64854;SDS011;51321;50.428;8.378;2022-07-23T04:03:22;7.22;;;6.53;;
64854;SDS011;51321;50.428;8.378;2022-07-23T04:05:44;6.70;;;6.10;;
64854;SDS011;51321;50.428;8.378;2022-07-23T04:08:08;7.50;;;6.80;;
64854;SDS011;51321;50.428;8.378;2022-07-23T04:10:34;7.72;;;6.93;;
64854;SDS011;51321;50.428;8.378;2022-07-23T04:12:59;7.75;;;6.97;;
64854;SDS011;51321;50.428;8.378;2022-07-23T04:15:21;7.07;;;6.43;;
64854;SDS011;51321;50.428;8.378;2022-07-23T04:17:43;6.93;;;6.07;;
64854;SDS011;51321;50.428;8.378;2022-07-23T04:20:05;8.82;;;7.53;;
64854;SDS011;51321;50.428;8.378;2022-07-23T04:22:33;9.20;;;6.50;;
64854;SDS011;51321;50.428;8.378;2022-07-23T04:24:55;8.80;;;7.28;;
64854;SDS011;51321;50.428;8.378;2022-07-23T04:27:19;7.57;;;6.88;;
64854;SDS011;51321;50.428;8.378;2022-07-23T04:29:40;9.63;;;7.53;;
64854;SDS011;51321;50.428;8.378;2022-07-23T04:32:03;9.48;;;7.28;;
64854;SDS011;51321;50.428;8.378;2022-07-23T04:34:25;6.72;;;6.03;;
64854;SDS011;51321;50.428;8.378;2022-07-23T04:36:48;7.03;;;6.43;;
64854;SDS011;51321;50.428;8.378;2022-07-23T04:39:09;8.10;;;7.30;;
64854;SDS011;51321;50.428;8.378;2022-07-23T04:41:32;7.25;;;6.55;;
64854;SDS011;51321;50.428;8.378;2022-07-23T04:43:55;9.10;;;6.75;;
64854;SDS011;51321;50.428;8.378;2022-07-23T04:46:17;7.63;;;6.78;;
64854;SDS011;51321;50.428;8.378;2022-07-23T04:48:42;6.38;;;5.78;;
64854;SDS011;51321;50.428;8.378;2022-07-23T04:51:05;7.10;;;6.45;;
64854;SDS011;51321;50.428;8.378;2022-07-23T04:53:28;7.03;;;6.25;;
64854;SDS011;51321;50.428;8.378;2022-07-23T04:55:53;6.93;;;6.20;;
64854;SDS011;51321;50.428;8.378;2022-07-23T04:58:15;7.50;;;6.80;;
64854;SDS011;51321;50.428;8.378;2022-07-23T05:00:38;7.40;;;6.70;;
64854;SDS011;51321;50.428;8.378;2022-07-23T05:03:00;8.07;;;6.28;;
64854;SDS011;51321;50.428;8.378;2022-07-23T05:05:22;7.55;;;6.75;;
64854;SDS011;51321;50.428;8.378;2022-07-23T05:07:46;7.72;;;7.03;;
64854;SDS011;51321;50.428;8.378;2022-07-23T05:10:08;7.22;;;6.18;;
64854;SDS011;51321;50.428;8.378;2022-07-23T05:12:30;7.30;;;6.18;;
64854;SDS011;51321;50.428;8.378;2022-07-23T05:14:52;6.47;;;5.88;;
64854;SDS011;51321;50.428;8.378;2022-07-23T05:17:16;7.18;;;6.47;;
64854;SDS011;51321;50.428;8.378;2022-07-23T05:19:38;7.93;;;6.57;;
64854;SDS011;51321;50.428;8.378;2022-07-23T05:22:00;7.50;;;6.80;;
64854;SDS011;51321;50.428;8.378;2022-07-23T05:24:22;6.97;;;6.28;;
64854;SDS011;51321;50.428;8.378;2022-07-23T05:26:45;6.78;;;6.18;;
64854;SDS011;51321;50.428;8.378;2022-07-23T05:29:07;7.35;;;5.93;;
64854;SDS011;51321;50.428;8.378;2022-07-23T05:33:52;9.57;;;6.25;;
64854;SDS011;51321;50.428;8.378;2022-07-23T05:36:14;6.68;;;5.60;;
64854;SDS011;51321;50.428;8.378;2022-07-23T05:38:51;6.57;;;5.75;;
64854;SDS011;51321;50.428;8.378;2022-07-23T05:41:13;6.80;;;6.20;;
64854;SDS011;51321;50.428;8.378;2022-07-23T05:43:35;7.97;;;7.18;;
64854;SDS011;51321;50.428;8.378;2022-07-23T05:46:02;9.10;;;6.40;;
64854;SDS011;51321;50.428;8.378;2022-07-23T05:48:24;6.75;;;6.10;;
64854;SDS011;51321;50.428;8.378;2022-07-23T05:50:56;8.18;;;7.22;;
64854;SDS011;51321;50.428;8.378;2022-07-23T05:53:26;8.68;;;6.38;;
64854;SDS011;51321;50.428;8.378;2022-07-23T05:55:54;8.27;;;7.20;;
64854;SDS011;51321;50.428;8.378;2022-07-23T05:58:15;8.48;;;7.57;;
64854;SDS011;51321;50.428;8.378;2022-07-23T06:00:38;12.57;;;7.28;;
64854;SDS011;51321;50.428;8.378;2022-07-23T06:03:00;7.47;;;6.63;;
64854;SDS011;51321;50.428;8.378;2022-07-23T06:05:24;6.95;;;6.20;;
64854;SDS011;51321;50.428;8.378;2022-07-23T06:07:49;7.25;;;6.40;;
64854;SDS011;51321;50.428;8.378;2022-07-23T06:10:11;10.13;;;7.00;;
64854;SDS011;51321;50.428;8.378;2022-07-23T06:12:33;7.25;;;5.68;;
64854;SDS011;51321;50.428;8.378;2022-07-23T06:14:55;10.50;;;6.30;;
64854;SDS011;51321;50.428;8.378;2022-07-23T06:17:17;6.60;;;5.65;;
64854;SDS011;51321;50.428;8.378;2022-07-23T06:19:39;5.85;;;5.22;;
64854;SDS011;51321;50.428;8.378;2022-07-23T06:22:00;6.20;;;4.95;;
64854;SDS011;51321;50.428;8.378;2022-07-23T06:24:24;6.15;;;5.10;;
64854;SDS011;51321;50.428;8.378;2022-07-23T06:26:47;6.38;;;4.53;;
64854;SDS011;51321;50.428;8.378;2022-07-23T06:29:08;5.63;;;4.65;;
64854;SDS011;51321;50.428;8.378;2022-07-23T06:31:30;5.25;;;4.75;;
64854;SDS011;51321;50.428;8.378;2022-07-23T06:33:52;9.43;;;5.22;;
64854;SDS011;51321;50.428;8.378;2022-07-23T06:36:14;6.45;;;5.50;;
64854;SDS011;51321;50.428;8.378;2022-07-23T06:38:35;5.85;;;5.22;;
64854;SDS011;51321;50.428;8.378;2022-07-23T06:40:58;5.40;;;4.90;;
64854;SDS011;51321;50.428;8.378;2022-07-23T06:43:20;6.40;;;4.97;;
64854;SDS011;51321;50.428;8.378;2022-07-23T06:45:47;5.80;;;5.13;;
64854;SDS011;51321;50.428;8.378;2022-07-23T06:48:10;6.05;;;4.10;;
64854;SDS011;51321;50.428;8.378;2022-07-23T06:50:31;5.72;;;4.13;;
64854;SDS011;51321;50.428;8.378;2022-07-23T06:52:53;6.40;;;4.68;;
64854;SDS011;51321;50.428;8.378;2022-07-23T06:55:15;7.22;;;4.13;;
64854;SDS011;51321;50.428;8.378;2022-07-23T06:57:40;5.55;;;3.60;;
64854;SDS011;51321;50.428;8.378;2022-07-23T07:00:02;5.25;;;4.22;;
64854;SDS011;51321;50.428;8.378;2022-07-23T07:02:25;6.60;;;4.22;;
64854;SDS011;51321;50.428;8.378;2022-07-23T07:04:48;5.88;;;3.58;;
64854;SDS011;51321;50.428;8.378;2022-07-23T07:07:10;5.35;;;3.72;;
64854;SDS011;51321;50.428;8.378;2022-07-23T07:11:54;4.93;;;3.58;;
64854;SDS011;51321;50.428;8.378;2022-07-23T07:14:18;7.35;;;4.80;;
64854;SDS011;51321;50.428;8.378;2022-07-23T07:16:39;5.55;;;3.97;;
64854;SDS011;51321;50.428;8.378;2022-07-23T07:19:01;4.70;;;4.25;;
64854;SDS011;51321;50.428;8.378;2022-07-23T07:21:23;4.57;;;4.18;;
64854;SDS011;51321;50.428;8.378;2022-07-23T07:23:45;6.13;;;4.32;;
64854;SDS011;51321;50.428;8.378;2022-07-23T07:26:06;5.38;;;3.92;;
64854;SDS011;51321;50.428;8.378;2022-07-23T07:28:28;6.07;;;4.88;;
64854;SDS011;51321;50.428;8.378;2022-07-23T07:30:51;6.15;;;4.97;;
64854;SDS011;51321;50.428;8.378;2022-07-23T07:33:13;6.15;;;4.22;;
64854;SDS011;51321;50.428;8.378;2022-07-23T07:35:35;6.10;;;4.93;;
64854;SDS011;51321;50.428;8.378;2022-07-23T07:37:57;7.53;;;4.68;;
64854;SDS011;51321;50.428;8.378;2022-07-23T07:40:19;6.90;;;4.63;;
64854;SDS011;51321;50.428;8.378;2022-07-23T07:42:44;5.22;;;4.72;;
64854;SDS011;51321;50.428;8.378;2022-07-23T07:45:06;5.63;;;4.53;;
64854;SDS011;51321;50.428;8.378;2022-07-23T07:47:30;4.82;;;3.85;;
64854;SDS011;51321;50.428;8.378;2022-07-23T07:49:52;7.57;;;5.15;;
64854;SDS011;51321;50.428;8.378;2022-07-23T07:52:14;6.20;;;5.18;;
64854;SDS011;51321;50.428;8.378;2022-07-23T07:54:36;6.07;;;5.25;;
64854;SDS011;51321;50.428;8.378;2022-07-23T07:56:57;6.43;;;4.70;;
64854;SDS011;51321;50.428;8.378;2022-07-23T07:59:19;8.70;;;5.90;;
64854;SDS011;51321;50.428;8.378;2022-07-23T08:01:41;6.78;;;5.05;;
64854;SDS011;51321;50.428;8.378;2022-07-23T08:04:04;7.38;;;4.97;;
64854;SDS011;51321;50.428;8.378;2022-07-23T08:06:26;7.18;;;5.10;;
64854;SDS011;51321;50.428;8.378;2022-07-23T08:08:48;6.88;;;4.45;;
64854;SDS011;51321;50.428;8.378;2022-07-23T08:11:10;4.85;;;4.22;;
64854;SDS011;51321;50.428;8.378;2022-07-23T08:13:32;5.30;;;4.80;;
64854;SDS011;51321;50.428;8.378;2022-07-23T08:15:54;5.90;;;4.43;;
64854;SDS011;51321;50.428;8.378;2022-07-23T08:18:15;5.18;;;4.63;;
64854;SDS011;51321;50.428;8.378;2022-07-23T08:20:39;5.13;;;4.60;;
64854;SDS011;51321;50.428;8.378;2022-07-23T08:23:03;5.30;;;4.80;;
64854;SDS011;51321;50.428;8.378;2022-07-23T08:25:26;6.30;;;4.13;;
64854;SDS011;51321;50.428;8.378;2022-07-23T08:27:50;4.93;;;4.05;;
64854;SDS011;51321;50.428;8.378;2022-07-23T08:30:12;6.57;;;4.10;;
64854;SDS011;51321;50.428;8.378;2022-07-23T08:35:08;4.25;;;3.30;;
64854;SDS011;51321;50.428;8.378;2022-07-23T08:37:31;5.30;;;3.40;;
64854;SDS011;51321;50.428;8.378;2022-07-23T08:39:53;3.80;;;3.10;;
64854;SDS011;51321;50.428;8.378;2022-07-23T08:42:16;4.43;;;3.00;;
64854;SDS011;51321;50.428;8.378;2022-07-23T08:44:39;3.58;;;3.10;;
64854;SDS011;51321;50.428;8.378;2022-07-23T08:47:05;4.28;;;3.33;;
64854;SDS011;51321;50.428;8.378;2022-07-23T08:51:50;3.65;;;3.10;;
64854;SDS011;51321;50.428;8.378;2022-07-23T08:56:35;3.55;;;2.53;;
64854;SDS011;51321;50.428;8.378;2022-07-23T08:58:57;4.47;;;2.95;;
64854;SDS011;51321;50.428;8.378;2022-07-23T09:01:19;4.53;;;2.75;;
64854;SDS011;51321;50.428;8.378;2022-07-23T09:03:40;3.75;;;2.80;;
64854;SDS011;51321;50.428;8.378;2022-07-23T09:06:05;3.17;;;2.67;;
64854;SDS011;51321;50.428;8.378;2022-07-23T09:08:33;3.15;;;2.47;;
64854;SDS011;51321;50.428;8.378;2022-07-23T09:10:58;3.15;;;2.75;;
64854;SDS011;51321;50.428;8.378;2022-07-23T09:13:22;3.53;;;2.70;;
64854;SDS011;51321;50.428;8.378;2022-07-23T09:15:48;3.20;;;2.72;;
64854;SDS011;51321;50.428;8.378;2022-07-23T09:18:10;3.00;;;2.65;;
64854;SDS011;51321;50.428;8.378;2022-07-23T09:20:36;4.05;;;2.78;;
64854;SDS011;51321;50.428;8.378;2022-07-23T09:22:58;4.50;;;3.13;;
64854;SDS011;51321;50.428;8.378;2022-07-23T09:25:20;4.30;;;3.22;;
64854;SDS011;51321;50.428;8.378;2022-07-23T09:27:53;4.63;;;3.05;;
64854;SDS011;51321;50.428;8.378;2022-07-23T09:30:16;5.47;;;3.38;;
64854;SDS011;51321;50.428;8.378;2022-07-23T09:32:38;3.30;;;2.80;;
64854;SDS011;51321;50.428;8.378;2022-07-23T09:37:22;4.43;;;3.20;;
64854;SDS011;51321;50.428;8.378;2022-07-23T09:42:12;4.40;;;3.40;;
64854;SDS011;51321;50.428;8.378;2022-07-23T09:44:36;4.53;;;3.22;;
64854;SDS011;51321;50.428;8.378;2022-07-23T09:47:02;4.45;;;3.00;;
64854;SDS011;51321;50.428;8.378;2022-07-23T09:49:28;3.40;;;3.03;;
64854;SDS011;51321;50.428;8.378;2022-07-23T09:51:51;4.15;;;3.05;;
64854;SDS011;51321;50.428;8.378;2022-07-23T09:54:22;3.50;;;3.17;;
64854;SDS011;51321;50.428;8.378;2022-07-23T09:56:46;4.03;;;3.10;;
64854;SDS011;51321;50.428;8.378;2022-07-23T09:59:09;3.65;;;3.30;;
64854;SDS011;51321;50.428;8.378;2022-07-23T10:01:32;3.22;;;2.88;;
64854;SDS011;51321;50.428;8.378;2022-07-23T10:03:55;3.90;;;2.92;;
64854;SDS011;51321;50.428;8.378;2022-07-23T10:06:37;3.42;;;2.83;;
64854;SDS011;51321;50.428;8.378;2022-07-23T10:09:24;5.45;;;3.92;;
64854;SDS011;51321;50.428;8.378;2022-07-23T10:12:12;5.20;;;3.42;;
64854;SDS011;51321;50.428;8.378;2022-07-23T10:14:54;4.78;;;3.25;;
64854;SDS011;51321;50.428;8.378;2022-07-23T10:17:18;3.97;;;3.15;;
64854;SDS011;51321;50.428;8.378;2022-07-23T10:19:40;4.18;;;3.22;;
64854;SDS011;51321;50.428;8.378;2022-07-23T10:22:02;5.63;;;3.63;;
64854;SDS011;51321;50.428;8.378;2022-07-23T10:24:30;4.20;;;3.20;;
64854;SDS011;51321;50.428;8.378;2022-07-23T10:27:09;4.70;;;3.60;;
64854;SDS011;51321;50.428;8.378;2022-07-23T10:30:00;5.05;;;3.35;;
64854;SDS011;51321;50.428;8.378;2022-07-23T10:32:31;3.65;;;3.35;;
64854;SDS011;51321;50.428;8.378;2022-07-23T10:35:03;4.80;;;3.58;;
64854;SDS011;51321;50.428;8.378;2022-07-23T10:37:35;3.92;;;3.47;;
64854;SDS011;51321;50.428;8.378;2022-07-23T10:40:10;4.32;;;3.03;;
64854;SDS011;51321;50.428;8.378;2022-07-23T10:42:37;3.60;;;3.30;;
64854;SDS011;51321;50.428;8.378;2022-07-23T10:44:59;3.97;;;3.47;;
64854;SDS011;51321;50.428;8.378;2022-07-23T10:50:18;4.90;;;3.28;;
64854;SDS011;51321;50.428;8.378;2022-07-23T10:52:55;3.83;;;3.17;;
64854;SDS011;51321;50.428;8.378;2022-07-23T10:55:51;4.40;;;3.50;;
64854;SDS011;51321;50.428;8.378;2022-07-23T10:58:17;3.30;;;2.90;;
64854;SDS011;51321;50.428;8.378;2022-07-23T11:00:40;5.13;;;3.60;;
64854;SDS011;51321;50.428;8.378;2022-07-23T11:03:02;5.18;;;3.38;;
64854;SDS011;51321;50.428;8.378;2022-07-23T11:05:38;4.05;;;3.45;;
64854;SDS011;51321;50.428;8.378;2022-07-23T11:08:12;3.95;;;3.47;;
64854;SDS011;51321;50.428;8.378;2022-07-23T11:10:40;4.57;;;3.22;;
64854;SDS011;51321;50.428;8.378;2022-07-23T11:16:03;4.20;;;3.25;;
64854;SDS011;51321;50.428;8.378;2022-07-23T11:24:04;3.85;;;3.45;;
64854;SDS011;51321;50.428;8.378;2022-07-23T11:26:40;4.75;;;4.00;;
64854;SDS011;51321;50.428;8.378;2022-07-23T11:31:59;4.72;;;3.53;;
64854;SDS011;51321;50.428;8.378;2022-07-23T11:34:28;5.35;;;3.17;;
64854;SDS011;51321;50.428;8.378;2022-07-23T11:36:52;4.30;;;3.30;;
64854;SDS011;51321;50.428;8.378;2022-07-23T11:39:14;4.47;;;3.45;;
64854;SDS011;51321;50.428;8.378;2022-07-23T11:41:43;4.85;;;3.45;;
64854;SDS011;51321;50.428;8.378;2022-07-23T11:44:05;5.32;;;3.00;;
64854;SDS011;51321;50.428;8.378;2022-07-23T11:46:53;3.90;;;3.50;;
64854;SDS011;51321;50.428;8.378;2022-07-23T11:49:16;9.38;;;3.38;;
64854;SDS011;51321;50.428;8.378;2022-07-23T11:51:38;3.30;;;3.00;;
64854;SDS011;51321;50.428;8.378;2022-07-23T11:54:06;3.63;;;3.33;;
64854;SDS011;51321;50.428;8.378;2022-07-23T11:56:28;7.38;;;3.97;;
64854;SDS011;51321;50.428;8.378;2022-07-23T11:58:54;4.47;;;3.35;;
64854;SDS011;51321;50.428;8.378;2022-07-23T12:01:17;7.55;;;4.60;;
64854;SDS011;51321;50.428;8.378;2022-07-23T12:03:48;4.07;;;3.17;;
64854;SDS011;51321;50.428;8.378;2022-07-23T12:06:10;4.50;;;3.40;;
64854;SDS011;51321;50.428;8.378;2022-07-23T12:10:55;4.68;;;3.08;;
64854;SDS011;51321;50.428;8.378;2022-07-23T12:13:18;4.28;;;3.50;;
64854;SDS011;51321;50.428;8.378;2022-07-23T12:15:43;4.38;;;3.97;;
64854;SDS011;51321;50.428;8.378;2022-07-23T12:18:08;3.92;;;3.08;;
64854;SDS011;51321;50.428;8.378;2022-07-23T12:20:32;4.60;;;3.13;;
64854;SDS011;51321;50.428;8.378;2022-07-23T12:22:58;3.45;;;2.92;;
64854;SDS011;51321;50.428;8.378;2022-07-23T12:25:22;4.45;;;3.10;;
64854;SDS011;51321;50.428;8.378;2022-07-23T12:27:46;4.57;;;3.45;;
64854;SDS011;51321;50.428;8.378;2022-07-23T12:30:24;4.28;;;3.10;;
64854;SDS011;51321;50.428;8.378;2022-07-23T12:32:47;4.07;;;3.40;;
64854;SDS011;51321;50.428;8.378;2022-07-23T12:35:10;3.92;;;3.10;;
64854;SDS011;51321;50.428;8.378;2022-07-23T12:39:54;3.72;;;3.10;;
64854;SDS011;51321;50.428;8.378;2022-07-23T12:42:17;4.00;;;3.38;;
64854;SDS011;51321;50.428;8.378;2022-07-23T12:44:40;5.35;;;3.25;;
64854;SDS011;51321;50.428;8.378;2022-07-23T12:47:04;4.45;;;3.15;;
64854;SDS011;51321;50.428;8.378;2022-07-23T12:49:26;3.63;;;3.13;;
64854;SDS011;51321;50.428;8.378;2022-07-23T12:51:48;4.15;;;3.08;;
64854;SDS011;51321;50.428;8.378;2022-07-23T12:54:10;4.30;;;3.15;;
64854;SDS011;51321;50.428;8.378;2022-07-23T12:56:32;3.03;;;2.75;;
64854;SDS011;51321;50.428;8.378;2022-07-23T12:58:56;6.05;;;2.75;;
64854;SDS011;51321;50.428;8.378;2022-07-23T13:01:23;2.83;;;2.55;;
64854;SDS011;51321;50.428;8.378;2022-07-23T13:03:54;3.88;;;2.38;;
64854;SDS011;51321;50.428;8.378;2022-07-23T13:06:17;2.90;;;2.47;;
64854;SDS011;51321;50.428;8.378;2022-07-23T13:11:01;3.30;;;2.47;;
64854;SDS011;51321;50.428;8.378;2022-07-23T13:13:25;3.25;;;2.70;;
64854;SDS011;51321;50.428;8.378;2022-07-23T13:15:48;3.15;;;2.63;;
64854;SDS011;51321;50.428;8.378;2022-07-23T13:20:33;3.38;;;2.00;;
64854;SDS011;51321;50.428;8.378;2022-07-23T13:25:18;3.65;;;2.60;;
64854;SDS011;51321;50.428;8.378;2022-07-23T13:27:40;2.35;;;2.15;;
64854;SDS011;51321;50.428;8.378;2022-07-23T13:32:24;3.05;;;2.33;;
64854;SDS011;51321;50.428;8.378;2022-07-23T13:37:08;3.20;;;2.40;;
64854;SDS011;51321;50.428;8.378;2022-07-23T13:41:52;2.75;;;2.13;;
64854;SDS011;51321;50.428;8.378;2022-07-23T13:46:35;3.40;;;2.60;;
64854;SDS011;51321;50.428;8.378;2022-07-23T13:51:20;2.60;;;2.25;;
64854;SDS011;51321;50.428;8.378;2022-07-23T13:53:44;2.80;;;1.95;;
64854;SDS011;51321;50.428;8.378;2022-07-23T13:56:07;2.33;;;1.90;;
64854;SDS011;51321;50.428;8.378;2022-07-23T13:58:29;2.70;;;2.35;;
64854;SDS011;51321;50.428;8.378;2022-07-23T14:00:51;3.10;;;2.20;;
64854;SDS011;51321;50.428;8.378;2022-07-23T14:03:14;3.42;;;2.20;;
64854;SDS011;51321;50.428;8.378;2022-07-23T14:05:36;2.47;;;2.28;;
64854;SDS011;51321;50.428;8.378;2022-07-23T14:08:03;2.42;;;2.20;;
64854;SDS011;51321;50.428;8.378;2022-07-23T14:10:25;2.88;;;2.40;;
64854;SDS011;51321;50.428;8.378;2022-07-23T14:12:47;3.10;;;1.90;;
64854;SDS011;51321;50.428;8.378;2022-07-23T14:15:11;5.50;;;2.30;;
64854;SDS011;51321;50.428;8.378;2022-07-23T14:17:33;2.22;;;1.77;;
64854;SDS011;51321;50.428;8.378;2022-07-23T14:19:55;3.42;;;1.90;;
64854;SDS011;51321;50.428;8.378;2022-07-23T14:24:40;2.45;;;2.03;;
64854;SDS011;51321;50.428;8.378;2022-07-23T14:27:03;4.15;;;2.38;;
64854;SDS011;51321;50.428;8.378;2022-07-23T14:29:25;4.80;;;2.00;;
64854;SDS011;51321;50.428;8.378;2022-07-23T14:34:09;2.90;;;2.10;;
64854;SDS011;51321;50.428;8.378;2022-07-23T14:36:31;2.25;;;1.92;;
64854;SDS011;51321;50.428;8.378;2022-07-23T14:43:38;3.88;;;1.75;;
64854;SDS011;51321;50.428;8.378;2022-07-23T14:46:01;2.15;;;1.95;;
64854;SDS011;51321;50.428;8.378;2022-07-23T14:50:44;3.50;;;2.10;;
64854;SDS011;51321;50.428;8.378;2022-07-23T14:55:27;3.38;;;2.00;;
64854;SDS011;51321;50.428;8.378;2022-07-23T14:57:52;2.85;;;2.10;;
64854;SDS011;51321;50.428;8.378;2022-07-23T15:00:14;3.67;;;2.00;;
64854;SDS011;51321;50.428;8.378;2022-07-23T15:02:36;2.00;;;1.65;;
64854;SDS011;51321;50.428;8.378;2022-07-23T15:07:21;2.60;;;1.92;;
64854;SDS011;51321;50.428;8.378;2022-07-23T15:12:04;3.47;;;1.80;;
64854;SDS011;51321;50.428;8.378;2022-07-23T15:14:28;3.08;;;2.03;;
64854;SDS011;51321;50.428;8.378;2022-07-23T15:16:49;3.63;;;2.00;;
64854;SDS011;51321;50.428;8.378;2022-07-23T15:19:11;2.30;;;1.90;;
64854;SDS011;51321;50.428;8.378;2022-07-23T15:23:55;3.25;;;1.88;;
64854;SDS011;51321;50.428;8.378;2022-07-23T15:26:18;2.10;;;1.90;;
64854;SDS011;51321;50.428;8.378;2022-07-23T15:28:41;3.53;;;2.42;;
64854;SDS011;51321;50.428;8.378;2022-07-23T15:31:04;6.32;;;2.40;;
64854;SDS011;51321;50.428;8.378;2022-07-23T15:33:26;2.25;;;1.92;;
64854;SDS011;51321;50.428;8.378;2022-07-23T15:35:48;3.42;;;1.60;;
64854;SDS011;51321;50.428;8.378;2022-07-23T15:38:13;5.10;;;2.03;;
64854;SDS011;51321;50.428;8.378;2022-07-23T15:40:34;2.78;;;1.90;;
64854;SDS011;51321;50.428;8.378;2022-07-23T15:42:56;1.73;;;1.55;;
64854;SDS011;51321;50.428;8.378;2022-07-23T15:47:41;2.92;;;1.60;;
64854;SDS011;51321;50.428;8.378;2022-07-23T15:50:04;3.10;;;1.55;;
64854;SDS011;51321;50.428;8.378;2022-07-23T15:52:26;2.63;;;1.65;;
64854;SDS011;51321;50.428;8.378;2022-07-23T15:54:48;2.58;;;1.80;;
64854;SDS011;51321;50.428;8.378;2022-07-23T15:57:10;2.78;;;1.60;;
64854;SDS011;51321;50.428;8.378;2022-07-23T15:59:32;5.13;;;2.13;;